createdAt,value
2023-02-19T00:01:33.890Z,97759.94
2023-02-19T00:04:39.989Z,97763.72
2023-02-19T00:07:49.426Z,97762.03
2023-02-19T00:10:55.497Z,97760.53
2023-02-19T00:14:05.464Z,97766.50
2023-02-19T00:17:11.308Z,97759.72
2023-02-19T00:20:18.076Z,97765.81
2023-02-19T00:23:27.183Z,97753.81
2023-02-19T00:26:35.248Z,97750.81
2023-02-19T00:29:41.197Z,97753.47
2023-02-19T00:32:52.735Z,97749.50
2023-02-19T00:35:58.600Z,97758.88
2023-02-19T00:39:10.637Z,97743.19
2023-02-19T00:42:16.706Z,97754.44
2023-02-19T00:45:23.465Z,97736.56
2023-02-19T00:48:29.297Z,97751.09
2023-02-19T00:51:40.285Z,97747.81
2023-02-19T00:54:48.755Z,97750.94
2023-02-19T00:57:55.383Z,97737.88
2023-02-19T01:01:01.282Z,97741.00
2023-02-19T01:04:08.664Z,97738.41
2023-02-19T01:07:14.834Z,97738.16
2023-02-19T01:10:24.423Z,97740.13
2023-02-19T01:13:31.952Z,97733.09
2023-02-19T01:16:39.695Z,97742.16
2023-02-19T01:19:45.842Z,97720.50
2023-02-19T01:22:52.598Z,97718.53
2023-02-19T01:26:01.066Z,97714.25
2023-02-19T01:29:07.845Z,97707.09
2023-02-19T01:32:13.781Z,97709.03
2023-02-19T01:35:21.052Z,97713.84
2023-02-19T01:38:26.950Z,97696.19
2023-02-19T01:41:41.734Z,97694.41
2023-02-19T01:45:24.057Z,97698.34
2023-02-19T01:48:40.783Z,97700.50
2023-02-19T01:51:54.509Z,97690.25
2023-02-19T01:55:05.593Z,97691.06
2023-02-19T01:58:14.666Z,97682.63
2023-02-19T02:01:21.387Z,97681.16
2023-02-19T02:04:28.814Z,97683.94
2023-02-19T02:07:48.183Z,97675.41
2023-02-19T02:10:56.304Z,97665.63
2023-02-19T02:14:08.171Z,97672.56
2023-02-19T02:17:27.856Z,97667.63
2023-02-19T02:21:06.593Z,97659.38
2023-02-19T02:24:56.032Z,97652.94
2023-02-19T02:28:33.376Z,97648.31
2023-02-19T02:31:47.117Z,97659.88
2023-02-19T02:35:04.498Z,97662.03
2023-02-19T02:38:18.311Z,97662.88
2023-02-19T02:41:25.515Z,97653.47
2023-02-19T02:44:38.496Z,97646.00
2023-02-19T02:47:56.135Z,97651.63
2023-02-19T02:51:13.352Z,97641.22
2023-02-19T02:54:46.966Z,97633.16
2023-02-19T02:57:53.779Z,97627.41
2023-02-19T03:01:22.812Z,97624.44
2023-02-19T03:05:03.160Z,97607.91
2023-02-19T03:08:19.242Z,97623.13
2023-02-19T03:11:37.633Z,97614.22
2023-02-19T03:15:04.381Z,97613.34
2023-02-19T03:18:28.169Z,97617.50
2023-02-19T03:21:44.082Z,97610.22
2023-02-19T03:25:10.589Z,97609.56
2023-02-19T03:28:44.210Z,97617.69
2023-02-19T03:31:55.552Z,97618.97
2023-02-19T03:35:12.609Z,97614.56
2023-02-19T03:38:30.218Z,97623.13
2023-02-19T03:41:51.338Z,97621.31
2023-02-19T03:45:17.847Z,97618.50
2023-02-19T03:48:37.835Z,97608.75
2023-02-19T03:51:57.417Z,97605.47
2023-02-19T03:55:16.341Z,97615.19
2023-02-19T03:58:34.997Z,97618.50
2023-02-19T04:01:50.449Z,97614.56
2023-02-19T04:05:08.626Z,97596.22
2023-02-19T04:08:22.692Z,97600.69
2023-02-19T04:11:41.692Z,97594.41
2023-02-19T04:15:00.983Z,97574.91
2023-02-19T04:18:14.383Z,97601.50
2023-02-19T04:21:25.329Z,97599.19
2023-02-19T04:24:39.271Z,97590.25
2023-02-19T04:27:49.828Z,97594.06
2023-02-19T04:30:55.776Z,97585.66
2023-02-19T04:34:02.563Z,97557.41
2023-02-19T04:37:09.367Z,97571.78
2023-02-19T04:40:16.054Z,97569.47
2023-02-19T04:43:24.615Z,97563.69
2023-02-19T04:46:31.304Z,97569.66
2023-02-19T04:49:37.234Z,97564.19
2023-02-19T04:52:44.287Z,97559.41
2023-02-19T04:55:53.425Z,97546.03
2023-02-19T04:59:03.027Z,97531.50
2023-02-19T05:02:08.932Z,97512.81
2023-02-19T05:05:15.612Z,97509.84
2023-02-19T05:08:21.758Z,97510.34
2023-02-19T05:11:28.475Z,97495.00
2023-02-19T05:14:36.958Z,97501.09
2023-02-19T05:17:43.776Z,97498.44
2023-02-19T05:20:49.639Z,97487.72
2023-02-19T05:23:56.523Z,97495.47
2023-02-19T05:27:02.426Z,97487.03
2023-02-19T05:30:14.406Z,97495.78
2023-02-19T05:33:28.002Z,97488.53
2023-02-19T05:36:37.386Z,97488.06
2023-02-19T05:39:43.225Z,97487.75
2023-02-19T05:42:49.886Z,97484.09
2023-02-19T05:46:06.757Z,97482.94
2023-02-19T05:49:13.487Z,97483.75
2023-02-19T05:52:21.452Z,97490.69
2023-02-19T05:55:28.184Z,97490.19
2023-02-19T05:58:34.712Z,97491.34
2023-02-19T06:01:45.189Z,97499.63
2023-02-19T06:04:51.076Z,97504.06
2023-02-19T06:07:58.007Z,97503.41
2023-02-19T06:11:04.488Z,97524.53
2023-02-19T06:14:11.385Z,97515.16
2023-02-19T06:17:20.744Z,97530.16
2023-02-19T06:20:27.589Z,97531.63
2023-02-19T06:23:34.369Z,97526.88
2023-02-19T06:26:41.860Z,97522.41
2023-02-19T06:29:47.818Z,97516.94
2023-02-19T06:32:58.033Z,97508.69
2023-02-19T06:36:07.353Z,97513.63
2023-02-19T06:39:14.142Z,97505.84
2023-02-19T06:42:20.231Z,97503.06
2023-02-19T06:45:26.978Z,97509.53
2023-02-19T06:48:37.465Z,97505.06
2023-02-19T06:51:44.202Z,97500.09
2023-02-19T06:54:50.073Z,97507.22
2023-02-19T06:57:56.853Z,97512.00
2023-02-19T07:01:08.455Z,97504.56
2023-02-19T07:04:18.306Z,97510.34
2023-02-19T07:07:24.354Z,97503.91
2023-02-19T07:10:31.123Z,97499.59
2023-02-19T07:13:37.548Z,97505.06
2023-02-19T07:16:44.313Z,97499.44
2023-02-19T07:19:52.798Z,97493.50
2023-02-19T07:23:00.932Z,97489.03
2023-02-19T07:26:07.651Z,97492.81
2023-02-19T07:29:14.349Z,97489.53
2023-02-19T07:32:20.317Z,97486.88
2023-02-19T07:35:30.077Z,97478.94
2023-02-19T07:38:36.038Z,97481.72
2023-02-19T07:41:42.802Z,97474.13
2023-02-19T07:45:04.575Z,97468.69
2023-02-19T07:48:11.293Z,97469.00
2023-02-19T07:51:23.506Z,97473.63
2023-02-19T07:54:30.540Z,97468.31
2023-02-19T07:57:36.502Z,97459.72
2023-02-19T08:00:43.345Z,97455.88
2023-02-19T08:03:50.589Z,97449.44
2023-02-19T08:07:05.630Z,97447.16
2023-02-19T08:10:24.416Z,97448.47
2023-02-19T08:13:34.524Z,97451.78
2023-02-19T08:16:43.222Z,97442.31
2023-02-19T08:19:50.379Z,97451.28
2023-02-19T08:22:58.910Z,97449.38
2023-02-19T08:26:06.543Z,97455.72
2023-02-19T08:29:12.980Z,97457.31
2023-02-19T08:32:19.732Z,97450.50
2023-02-19T08:35:26.463Z,97452.22
2023-02-19T08:38:36.863Z,97456.84
2023-02-19T08:41:46.289Z,97466.16
2023-02-19T08:44:53.145Z,97464.94
2023-02-19T08:47:59.092Z,97468.59
2023-02-19T08:51:11.989Z,97471.91
2023-02-19T08:54:20.880Z,97476.06
2023-02-19T08:57:30.371Z,97470.19
2023-02-19T09:00:36.397Z,97473.63
2023-02-19T09:03:44.242Z,97472.31
2023-02-19T09:06:50.283Z,97472.84
2023-02-19T09:09:59.771Z,97470.72
2023-02-19T09:13:05.873Z,97476.53
2023-02-19T09:16:13.018Z,97479.00
2023-02-19T09:19:23.996Z,97483.75
2023-02-19T09:22:30.809Z,97480.78
2023-02-19T09:25:39.564Z,97476.53
2023-02-19T09:28:46.480Z,97485.31
2023-02-19T09:31:52.607Z,97476.59
2023-02-19T09:34:59.401Z,97489.47
2023-02-19T09:38:11.081Z,97501.25
2023-02-19T09:41:35.984Z,97502.88
2023-02-19T09:44:48.611Z,97507.50
2023-02-19T09:48:01.206Z,97503.06
2023-02-19T09:51:15.551Z,97509.53
2023-02-19T09:54:28.048Z,97525.84
2023-02-19T09:57:40.350Z,97528.38
2023-02-19T10:00:53.188Z,97523.53
2023-02-19T10:03:59.387Z,97532.47
2023-02-19T10:07:16.570Z,97537.59
2023-02-19T10:10:36.826Z,97542.06
2023-02-19T10:13:52.894Z,97545.34
2023-02-19T10:17:08.337Z,97551.97
2023-02-19T10:20:19.054Z,97551.16
2023-02-19T10:23:28.151Z,97553.28
2023-02-19T10:26:36.834Z,97553.59
2023-02-19T10:29:48.021Z,97555.44
2023-02-19T10:33:12.686Z,97562.88
2023-02-19T10:36:32.738Z,97572.97
2023-02-19T10:39:47.090Z,97568.31
2023-02-19T10:42:59.165Z,97576.50
2023-02-19T10:46:19.811Z,97589.22
2023-02-19T10:49:32.664Z,97582.75
2023-02-19T10:52:39.725Z,97598.75
2023-02-19T10:55:45.864Z,97608.41
2023-02-19T10:58:54.103Z,97614.47
2023-02-19T11:02:06.863Z,97624.53
2023-02-19T11:05:23.987Z,97626.63
2023-02-19T11:08:30.257Z,97635.69
2023-02-19T11:11:42.620Z,97639.75
2023-02-19T11:14:49.507Z,97635.91
2023-02-19T11:18:11.150Z,97644.94
2023-02-19T11:21:33.335Z,97647.50
2023-02-19T11:24:42.219Z,97642.53
2023-02-19T11:28:00.159Z,97641.19
2023-02-19T11:31:31.943Z,97650.63
2023-02-19T11:34:40.622Z,97656.44
2023-02-19T11:38:00.579Z,97666.53
2023-02-19T11:41:28.981Z,97660.81
2023-02-19T11:44:56.923Z,97687.34
2023-02-19T11:48:54.079Z,97694.38
2023-02-19T11:52:26.231Z,97704.38
2023-02-19T11:55:52.947Z,97702.97
2023-02-19T11:59:07.129Z,97707.78
2023-02-19T12:02:51.371Z,97710.88
2023-02-19T12:06:23.190Z,97714.88
2023-02-19T12:09:59.205Z,97714.66
2023-02-19T12:13:25.013Z,97725.16
2023-02-19T12:16:47.099Z,97723.44
2023-02-19T12:20:18.225Z,97739.09
2023-02-19T12:24:10.920Z,97743.66
2023-02-19T12:27:48.500Z,97745.16
2023-02-19T12:31:39.533Z,97756.78
2023-02-19T12:35:27.725Z,97764.50
2023-02-19T12:38:39.739Z,97756.78
2023-02-19T12:42:03.573Z,97766.69
2023-02-19T12:45:24.656Z,97769.84
2023-02-19T12:48:40.569Z,97778.13
2023-02-19T12:51:55.393Z,97779.75
2023-02-19T12:55:22.304Z,97784.19
2023-02-19T12:58:40.685Z,97782.91
2023-02-19T13:02:03.167Z,97789.19
2023-02-19T13:05:23.047Z,97789.28
2023-02-19T13:08:45.323Z,97794.97
2023-02-19T13:12:08.752Z,97800.91
2023-02-19T13:15:27.425Z,97806.06
2023-02-19T13:18:47.308Z,97814.31
2023-02-19T13:22:37.753Z,97828.66
2023-02-19T13:26:14.757Z,97827.59
2023-02-19T13:30:03.537Z,97843.25
2023-02-19T13:33:36.250Z,97841.50
2023-02-19T13:36:46.463Z,97849.41
2023-02-19T13:39:55.932Z,97850.22
2023-02-19T13:43:07.316Z,97856.75
2023-02-19T13:46:18.470Z,97857.31
2023-02-19T13:49:52.458Z,97872.66
2023-02-19T13:53:03.319Z,97880.72
2023-02-19T13:56:43.425Z,97881.38
2023-02-19T13:59:50.452Z,97892.47
2023-02-19T14:03:42.590Z,97902.44
2023-02-19T14:07:48.093Z,97908.09
2023-02-19T14:11:02.733Z,97906.69
2023-02-19T14:14:31.160Z,97913.59
2023-02-19T14:17:45.897Z,97913.09
2023-02-19T14:20:52.189Z,97927.38
2023-02-19T14:24:01.910Z,97927.91
2023-02-19T14:27:08.344Z,97940.38
2023-02-19T14:30:19.222Z,97943.88
2023-02-19T14:33:29.435Z,97955.50
2023-02-19T14:36:50.587Z,97953.97
2023-02-19T14:39:59.516Z,97949.53
2023-02-19T14:43:14.288Z,97947.03
2023-02-19T14:46:34.671Z,97949.94
2023-02-19T14:49:49.666Z,97943.19
2023-02-19T14:53:04.930Z,97954.13
2023-02-19T14:56:27.305Z,97956.72
2023-02-19T14:59:34.123Z,97962.28
2023-02-19T15:02:46.890Z,97968.66
2023-02-19T15:06:00.909Z,97960.63
2023-02-19T15:09:11.032Z,97969.50
2023-02-19T15:12:27.039Z,97969.06
2023-02-19T15:15:41.325Z,97974.19
2023-02-19T15:18:53.152Z,97985.13
2023-02-19T15:22:00.390Z,97988.06
2023-02-19T15:25:09.202Z,97997.03
2023-02-19T15:28:24.510Z,97987.63
2023-02-19T15:31:30.757Z,97993.41
2023-02-19T15:34:42.211Z,97996.63
2023-02-19T15:37:48.410Z,97998.69
2023-02-19T15:40:58.016Z,97987.88
2023-02-19T15:44:32.853Z,98017.09
2023-02-19T15:47:49.344Z,98031.09
2023-02-19T15:51:10.234Z,98039.88
2023-02-19T15:54:31.296Z,98045.84
2023-02-19T15:57:47.194Z,98057.03
2023-02-19T16:01:01.116Z,98059.63
2023-02-19T16:04:18.907Z,98053.09
2023-02-19T16:07:32.604Z,98068.59
2023-02-19T16:10:38.571Z,98080.19
2023-02-19T16:13:45.289Z,98086.66
2023-02-19T16:16:57.684Z,98096.63
2023-02-19T16:20:07.399Z,98098.91
2023-02-19T16:23:24.667Z,98103.53
2023-02-19T16:26:32.784Z,98117.72
2023-02-19T16:29:38.991Z,98116.03
2023-02-19T16:32:47.094Z,98121.66
2023-02-19T16:35:54.736Z,98135.91
2023-02-19T16:39:28.107Z,98133.41
2023-02-19T16:42:34.026Z,98144.00
2023-02-19T16:45:41.049Z,98154.97
2023-02-19T16:48:47.360Z,98175.47
2023-02-19T16:51:55.403Z,98176.66
2023-02-19T16:55:04.305Z,98181.50
2023-02-19T16:58:11.102Z,98194.84
2023-02-19T17:01:17.206Z,98196.38
2023-02-19T17:04:24.171Z,98212.84
2023-02-19T17:07:32.537Z,98213.69
2023-02-19T17:10:41.971Z,98215.38
2023-02-19T17:13:50.022Z,98221.97
2023-02-19T17:16:56.809Z,98216.91
2023-02-19T17:20:02.787Z,98212.28
2023-02-19T17:23:09.546Z,98233.16
2023-02-19T17:26:21.841Z,98229.16
2023-02-19T17:29:28.847Z,98221.56
2023-02-19T17:32:34.969Z,98226.22
2023-02-19T17:35:42.583Z,98234.63
2023-02-19T17:38:48.888Z,98246.56
2023-02-19T17:41:58.408Z,98246.13
2023-02-19T17:45:04.498Z,98259.97
2023-02-19T17:48:16.305Z,98263.78
2023-02-19T17:51:22.266Z,98274.44
2023-02-19T17:54:29.065Z,98272.53
2023-02-19T17:57:37.662Z,98269.69
2023-02-19T18:00:44.608Z,98273.00
2023-02-19T18:03:50.607Z,98278.72
2023-02-19T18:06:57.578Z,98288.50
2023-02-19T18:10:03.651Z,98290.31
2023-02-19T18:13:13.044Z,98296.28
2023-02-19T18:16:19.290Z,98306.31
2023-02-19T18:19:26.580Z,98317.28
2023-02-19T18:22:32.557Z,98325.78
2023-02-19T18:25:39.693Z,98334.03
2023-02-19T18:28:51.979Z,98327.34
2023-02-19T18:31:59.096Z,98339.91
2023-02-19T18:35:17.825Z,98340.59
2023-02-19T18:38:24.655Z,98337.72
2023-02-19T18:41:30.658Z,98335.22
2023-02-19T18:44:40.485Z,98340.97
2023-02-19T18:47:50.768Z,98330.69
2023-02-19T18:50:57.789Z,98345.47
2023-02-19T18:54:04.340Z,98344.03
2023-02-19T18:57:11.182Z,98353.53
2023-02-19T19:00:26.839Z,98353.41
2023-02-19T19:03:34.053Z,98365.41
2023-02-19T19:06:40.016Z,98369.09
2023-02-19T19:09:46.906Z,98372.59
2023-02-19T19:12:54.393Z,98381.25
2023-02-19T19:16:04.108Z,98375.63
2023-02-19T19:19:10.094Z,98378.72
2023-02-19T19:22:22.491Z,98383.88
2023-02-19T19:25:28.599Z,98385.88
2023-02-19T19:28:36.049Z,98382.97
2023-02-19T19:31:45.528Z,98388.19
2023-02-19T19:34:52.413Z,98392.47
2023-02-19T19:37:58.364Z,98395.22
2023-02-19T19:41:06.022Z,98389.06
2023-02-19T19:44:12.846Z,98403.94
2023-02-19T19:47:22.381Z,98404.47
2023-02-19T19:50:28.531Z,98399.22
2023-02-19T19:53:35.400Z,98405.28
2023-02-19T19:56:45.030Z,98406.53
2023-02-19T19:59:52.425Z,98412.28
2023-02-19T20:03:01.216Z,98416.72
2023-02-19T20:06:09.171Z,98413.97
2023-02-19T20:09:15.496Z,98407.84
2023-02-19T20:12:22.325Z,98405.56
2023-02-19T20:15:28.356Z,98412.63
2023-02-19T20:18:38.421Z,98408.44
2023-02-19T20:21:48.300Z,98415.13
2023-02-19T20:24:56.980Z,98415.94
2023-02-19T20:28:03.025Z,98417.38
2023-02-19T20:31:12.240Z,98434.56
2023-02-19T20:34:21.820Z,98426.75
2023-02-19T20:37:28.601Z,98427.94
2023-02-19T20:40:35.685Z,98428.25
2023-02-19T20:43:42.550Z,98441.97
2023-02-19T20:46:51.779Z,98443.66
2023-02-19T20:50:01.883Z,98444.72
2023-02-19T20:53:08.492Z,98445.72
2023-02-19T20:56:15.440Z,98448.56
2023-02-19T20:59:24.238Z,98452.31
2023-02-19T21:02:31.971Z,98462.34
2023-02-19T21:05:40.787Z,98459.13
2023-02-19T21:08:47.583Z,98468.97
2023-02-19T21:11:55.169Z,98474.84
2023-02-19T21:15:02.110Z,98478.19
2023-02-19T21:18:08.268Z,98475.19
2023-02-19T21:21:21.423Z,98490.34
2023-02-19T21:24:27.573Z,98485.63
2023-02-19T21:27:34.379Z,98488.00
2023-02-19T21:30:40.374Z,98491.44
2023-02-19T21:33:47.150Z,98505.34
2023-02-19T21:36:56.641Z,98509.38
2023-02-19T21:40:03.454Z,98511.09
2023-02-19T21:43:09.323Z,98512.84
2023-02-19T21:46:21.916Z,98514.63
2023-02-19T21:49:27.895Z,98514.03
2023-02-19T21:52:37.225Z,98513.00
2023-02-19T21:55:56.574Z,98504.81
2023-02-19T21:59:05.756Z,98513.00
2023-02-19T22:02:13.569Z,98517.66
2023-02-19T22:05:20.545Z,98517.75
2023-02-19T22:08:28.986Z,98512.81
2023-02-19T22:11:35.909Z,98520.59
2023-02-19T22:14:41.834Z,98516.63
2023-02-19T22:17:48.608Z,98528.78
2023-02-19T22:20:54.577Z,98537.38
2023-02-19T22:24:06.232Z,98540.13
2023-02-19T22:27:12.226Z,98539.72
2023-02-19T22:30:19.457Z,98542.03
2023-02-19T22:33:25.374Z,98552.72
2023-02-19T22:36:34.924Z,98546.22
2023-02-19T22:39:43.499Z,98556.03
2023-02-19T22:42:50.313Z,98556.91
2023-02-19T22:45:56.295Z,98558.34
2023-02-19T22:49:07.882Z,98557.00
2023-02-19T22:52:14.763Z,98553.25
2023-02-19T22:55:24.573Z,98553.78
2023-02-19T22:58:30.408Z,98560.47
2023-02-19T23:01:37.142Z,98566.34
2023-02-19T23:04:43.023Z,98572.84
2023-02-19T23:07:50.181Z,98576.41
2023-02-19T23:10:58.691Z,98575.78
2023-02-19T23:14:06.554Z,98589.72
2023-02-19T23:17:12.464Z,98583.22
2023-02-19T23:20:19.579Z,98578.28
2023-02-19T23:23:25.444Z,98587.72
2023-02-19T23:26:35.081Z,98592.34
2023-02-19T23:29:40.947Z,98585.75
2023-02-19T23:32:47.763Z,98589.09
2023-02-19T23:35:53.619Z,98597.97
2023-02-19T23:39:00.383Z,98597.66
2023-02-19T23:42:08.986Z,98596.63
2023-02-19T23:45:18.342Z,98589.50
2023-02-19T23:48:24.309Z,98584.78
2023-02-19T23:51:31.080Z,98578.25
2023-02-19T23:54:37.197Z,98579.09
2023-02-19T23:57:46.627Z,98576.38
